• Join FlightAware (Why Join?)
  • Login
  • US Flag 
03:51PM EST


 

Airport Tracker/Info


-or-


 

Live Flight TrackerFlight Track Log ✈ N9009Y ✈ 28-Mar-2014 ✈ KPMP - MYLS / SML

Flight Track Log - Related Links

Times and Time Zones

All times are in EDT time to prevent confusion due to time zone crossing. See the N9009Y flight status page for this flight to view local times or setup timezone preferences in your user account.

Time Position Orientation Groundspeed Altitude Reporting Facility
EDT Latitude Longitude Course Direction KTS MPH feet Rate Location/Type
09:27AM 26.2428 -80.1042 95° East 94 108 100  Level Miami Center
09:27AM 26.2411 -80.0833 95° East 102 117 700 1,080 Climbing Miami Center
09:28AM 26.2375 -80.0625 101° East 96 110 1,600 960 Climbing Miami Center
09:28AM 26.2397 -80.0556 70° East 102 117 1,700 540 Climbing Miami Center
09:29AM 26.2339 -80.0322 106° East 96 110 2,200 600 Climbing Miami Center
09:29AM 26.2361 -80.0231 75° East 95 109 2,300 540 Climbing Miami Center
09:30AM 26.2283 -80.0042 115° Southeast 96 110 2,800 600 Climbing Miami Center
09:30AM 26.2283 -79.9950 90° East 95 109 2,900 660 Climbing Miami Center
09:31AM 26.2247 -79.9717 100° East 100 115 3,500 660 Climbing Miami Center
09:31AM 26.2292 -79.9650 53° Northeast 95 109 3,600 540 Climbing Miami Center
09:32AM 26.2297 -79.9372 89° East 104 120 4,200 600 Climbing Miami Center
09:33AM 26.2261 -79.9047 97° East 104 120 4,800 540 Climbing Miami Center
09:34AM 26.2225 -79.8744 98° East 104 120 5,300 480 Climbing Miami Center
09:35AM 26.2150 -79.8417 104° East 104 120 5,800 420 Climbing Miami Center
09:36AM 26.2094 -79.8047 100° East 104 120 6,200 480 Climbing Miami Center
09:37AM 26.2039 -79.7650 99° East 116 133 6,800 360 Climbing Miami Center
09:38AM 26.1942 -79.7256 105° East 123 142 7,000 120 Climbing Miami Center
09:39AM 26.1806 -79.6811 109° East 137 158 7,100  Climbing Miami Center
09:40AM 26.1689 -79.6300 104° East 152 175 7,000  Descending Miami Center
09:41AM 26.1511 -79.5856 114° Southeast 159 183 7,100  Climbing Miami Center
09:42AM 26.1247 -79.5364 121° Southeast 164 189 7,100 -60 Level Miami Center
09:43AM 26.1025 -79.4897 118° Southeast 170 196 7,000  Descending Miami Center
09:44AM 26.0806 -79.4428 117° Southeast 170 196 7,100  Climbing Miami Center
09:45AM 26.0583 -79.3939 117° Southeast 170 196 7,000 -60 Descending Miami Center
09:46AM 26.0361 -79.3472 118° Southeast 170 196 7,000  Level Miami Center
09:47AM 26.0161 -79.2981 114° Southeast 165 190 7,000  Level Miami Center
09:48AM 25.9958 -79.2583 120° Southeast 171 197 7,100  Climbing Miami Center
09:49AM 25.9717 -79.2047 117° Southeast 171 197 7,100 -60 Level Miami Center
09:50AM 25.9494 -79.1581 118° Southeast 166 191 7,000 -60 Descending Miami Center
09:51AM 25.9231 -79.1139 124° Southeast 166 191 7,000  Level Miami Center
09:52AM 25.8964 -79.0672 122° Southeast 166 191 7,000  Level Miami Center
09:53AM 25.8742 -79.0228 119° Southeast 174 200 7,000 -60 Level Miami Center
09:54AM 25.8392 -78.9783 131° Southeast 174 200 6,900 -60 Descending Miami Center
09:55AM 25.8086 -78.9317 126° Southeast 179 206 6,900  Level Miami Center
09:56AM 25.7800 -78.8919 129° Southeast 179 206 7,000  Climbing Miami Center
09:57AM 25.7469 -78.8522 133° Southeast 174 200 7,000 -60 Level Miami Center
09:58AM 25.7225 -78.8056 120° Southeast 174 200 6,900  Descending Miami Center
09:59AM 25.6981 -78.7592 120° Southeast 174 200 7,000  Climbing Miami Center
10:00AM 25.6672 -78.7264 136° Southeast 174 200 7,000  Level Miami Center
10:01AM 25.6406 -78.6797 122° Southeast 174 200 7,000  Level Miami Center
10:02AM 25.6161 -78.6333 120° Southeast 174 200 7,000 -60 Level Miami Center
10:03AM 25.5853 -78.5892 128° Southeast 174 200 6,900 -60 Descending Miami Center
10:04AM 25.5567 -78.5450 126° Southeast 174 200 6,900 -60 Level Miami Center
10:05AM 25.5342 -78.4986 118° Southeast 174 200 6,800 -60 Descending Miami Center
10:06AM 25.5075 -78.4567 125° Southeast 174 200 6,800  Level Miami Center
10:07AM 25.4786 -78.4128 126° Southeast 174 200 6,900 60 Climbing Miami Center
10:08AM 25.4583 -78.3642 115° Southeast 174 200 7,000  Climbing Miami Center
10:09AM 25.4356 -78.3178 119° Southeast 169 194 7,000  Level Miami Center
10:10AM 25.4111 -78.2739 122° Southeast 169 194 7,100  Climbing Miami Center
10:11AM 25.3886 -78.2275 118° Southeast 169 194 7,100  Level Miami Center
10:12AM 25.3617 -78.1836 124° Southeast 169 194 7,100  Level Miami Center
10:13AM 25.3369 -78.1372 121° Southeast 169 194 7,100  Level Miami Center
10:14AM 25.3122 -78.0933 122° Southeast 169 194 7,100  Level Miami Center
10:15AM 25.2833 -78.0517 127° Southeast 169 194 7,100  Level Miami Center
10:23AM 25.0914 -77.7100 123° Southeast 175 201 7,100  Level Miami Center
10:24AM 25.0686 -77.6664 120° Southeast 175 201 7,200 -60 Climbing Miami Center
10:25AM 25.0397 -77.6228 126° Southeast 175 201 7,000 -120 Descending Miami Center
10:26AM 25.0359 -77.6291 123° Southeast  Level FlightAware Approximate
10:26AM 25.0106 -77.5789 126° Southeast 175 201 7,000  Level Miami Center
10:27AM 25.0113 -77.5873 123° Southeast  Level FlightAware Approximate
10:27AM 24.9836 -77.5328 123° Southeast 175 201 7,000  Level Miami Center
10:28AM 24.9867 -77.5455 123° Southeast  Level FlightAware Approximate
10:28AM 24.9525 -77.4914 130° Southeast 175 201 7,000  Level Miami Center
10:29AM 24.9621 -77.5037 123° Southeast  Level FlightAware Approximate
10:29AM 24.9275 -77.4478 122° Southeast 175 201 7,100  Level Miami Center
10:30AM 24.8986 -77.4042 126° Southeast 175 201 7,000  Descending Miami Center
10:31AM 24.8694 -77.3628 128° Southeast 175 201 7,100  Climbing Miami Center
10:32AM 24.8403 -77.3192 126° Southeast 175 201 7,100  Level Miami Center
10:33AM 24.8153 -77.2733 121° Southeast 175 201 7,100 -60 Level Miami Center
10:34AM 24.7903 -77.2275 121° Southeast 175 201 7,000 -60 Descending Miami Center
10:35AM 24.7653 -77.1839 122° Southeast 175 201 7,000  Level Miami Center
10:36AM 24.7342 -77.1356 125° Southeast 175 201 7,000  Level Miami Center
10:37AM 24.7069 -77.0922 125° Southeast 175 201 7,000  Level Miami Center
10:38AM 24.6736 -77.0533 133° Southeast 175 201 7,100  Climbing Miami Center
10:39AM 24.6444 -77.0144 130° Southeast 170 196 7,100 -60 Level Miami Center
10:40AM 24.6153 -76.9753 129° Southeast 170 196 7,000 -60 Descending Miami Center
10:41AM 24.5858 -76.9319 127° Southeast 165 190 7,000  Level Miami Center
10:42AM 24.5589 -76.8931 127° Southeast 165 190 7,000  Level Miami Center
10:43AM 24.5336 -76.8497 123° Southeast 165 190 7,100  Climbing Miami Center
10:44AM 24.5067 -76.8064 124° Southeast 170 196 7,100  Level Miami Center
10:45AM 24.4794 -76.7675 128° Southeast 170 196 7,100 -60 Level Miami Center
10:46AM 24.4542 -76.7219 121° Southeast 170 196 7,000 -60 Descending Miami Center
10:47AM 24.4250 -76.6808 128° Southeast 175 201 7,000  Level Miami Center
10:48AM 24.3997 -76.6397 124° Southeast 175 201 7,000  Level Miami Center
10:49AM 24.3725 -76.6011 128° Southeast 175 201 7,000  Level Miami Center
10:50AM 24.3494 -76.5600 122° Southeast 175 201 7,000  Level Miami Center
10:51AM 24.3244 -76.5167 122° Southeast 175 201 7,000  Level Miami Center
10:52AM 24.2969 -76.4736 125° Southeast 175 201 7,000  Level Miami Center
10:53AM 24.2697 -76.4325 126° Southeast 175 201 7,100  Climbing Miami Center
10:54AM 24.2383 -76.3939 132° Southeast 175 201 7,000  Descending Miami Center
10:55AM 24.2111 -76.3531 126° Southeast 170 196 7,100  Climbing Miami Center
10:56AM 24.1858 -76.3122 124° Southeast 170 196 7,100  Level Miami Center
10:57AM 24.1606 -76.2689 123° Southeast 170 196 7,100 -60 Level Miami Center
10:58AM 24.1353 -76.2303 126° Southeast 170 196 7,000 -60 Descending Miami Center
10:59AM 24.1058 -76.1872 127° Southeast 170 196 7,000  Level Miami Center
11:00AM 24.0806 -76.1486 126° Southeast 170 196 7,000  Level Miami Center
11:01AM 24.0531 -76.1078 126° Southeast 170 196 7,000  Level Miami Center
11:02AM 24.0258 -76.0694 128° Southeast 170 196 7,100  Climbing Miami Center
11:03AM 24.0006 -76.0286 124° Southeast 165 190 7,100 -120 Level Miami Center
11:04AM 23.9731 -75.9878 126° Southeast 165 190 6,900 -180 Descending Miami Center
11:05AM 23.9436 -75.9494 130° Southeast 165 190 6,800 -300 Descending Miami Center
11:06AM 23.9100 -75.9042 129° Southeast 165 190 6,400 -600 Descending Miami Center
11:07AM 23.8783 -75.8636 130° Southeast 165 190 5,700 -600 Descending Miami Center
11:08AM 23.8489 -75.8275 132° Southeast 165 190 5,200 -720 Descending Miami Center
11:09AM 23.8233 -75.7822 122° Southeast 165 190 4,300 -900 Descending Miami Center
11:11AM 23.7970 -75.7163 114° Southeast  Level FlightAware Approximate
11:18AM 23.6650 -75.4058 126° Southeast  Level FlightAware Approximate
11:19AM 23.6389 -75.3666 126° Southeast  Level FlightAware Approximate
11:20AM 23.6124 -75.3277 129° Southeast  Level FlightAware Approximate
11:21AM 23.5843 -75.2902 129° Southeast  Level FlightAware Approximate
11:22AM 23.5830 -75.2689 129° Southeast  Level Estimated
11:23AM 23.5830 -75.2689 173° South  Level Estimated
11:24AM 23.5830 -75.2689 129° Southeast  Level Estimated
11:25AM 23.5830 -75.2689 173° South  Level Estimated
11:26AM 23.5830 -75.2689 129° Southeast  Level Estimated
11:27AM 23.5830 -75.2689 173° South  Level Estimated
11:28AM 23.5830 -75.2689 129° Southeast  Level Estimated
11:29AM 23.5830 -75.2689 173° South  Level Estimated
11:30AM 23.5830 -75.2689 129° Southeast  Level Estimated
11:31AM 23.5830 -75.2689 173° South  Level Estimated
11:32AM 23.5830 -75.2689 129° Southeast  Level Estimated
11:33AM 23.5830 -75.2689 173° South  Level Estimated
11:34AM 23.5830 -75.2689 129° Southeast  Level Estimated
11:35AM 23.5830 -75.2689 173° South  Level Estimated
11:36AM 23.5830 -75.2689 129° Southeast  Level Estimated